sensor_id;sensor_type;location;lat;lon;timestamp;P1;durP1;ratioP1;P2;durP2;ratioP2
5807;SDS011;2930;42.678;23.312;2023-03-23T00:02:25;5.93;;;4.40;;
5807;SDS011;2930;42.678;23.312;2023-03-23T00:04:53;6.07;;;4.97;;
5807;SDS011;2930;42.678;23.312;2023-03-23T00:07:20;5.10;;;4.50;;
5807;SDS011;2930;42.678;23.312;2023-03-23T00:09:47;8.77;;;5.20;;
5807;SDS011;2930;42.678;23.312;2023-03-23T00:12:19;3.87;;;3.53;;
5807;SDS011;2930;42.678;23.312;2023-03-23T00:14:46;4.73;;;3.77;;
5807;SDS011;2930;42.678;23.312;2023-03-23T00:17:12;8.63;;;4.60;;
5807;SDS011;2930;42.678;23.312;2023-03-23T00:19:39;7.47;;;5.00;;
5807;SDS011;2930;42.678;23.312;2023-03-23T00:22:16;9.27;;;4.33;;
5807;SDS011;2930;42.678;23.312;2023-03-23T00:24:44;7.17;;;4.53;;
5807;SDS011;2930;42.678;23.312;2023-03-23T00:27:10;4.50;;;4.07;;
5807;SDS011;2930;42.678;23.312;2023-03-23T00:29:39;11.53;;;5.37;;
5807;SDS011;2930;42.678;23.312;2023-03-23T00:32:07;8.60;;;5.17;;
5807;SDS011;2930;42.678;23.312;2023-03-23T00:34:38;8.07;;;4.90;;
5807;SDS011;2930;42.678;23.312;2023-03-23T00:37:08;10.37;;;5.53;;
5807;SDS011;2930;42.678;23.312;2023-03-23T00:39:34;4.90;;;4.33;;
5807;SDS011;2930;42.678;23.312;2023-03-23T00:42:02;8.67;;;5.23;;
5807;SDS011;2930;42.678;23.312;2023-03-23T00:44:28;9.23;;;5.47;;
5807;SDS011;2930;42.678;23.312;2023-03-23T00:46:56;9.17;;;5.70;;
5807;SDS011;2930;42.678;23.312;2023-03-23T00:49:24;6.27;;;5.33;;
5807;SDS011;2930;42.678;23.312;2023-03-23T00:51:51;8.77;;;5.63;;
5807;SDS011;2930;42.678;23.312;2023-03-23T00:54:18;6.57;;;5.10;;
5807;SDS011;2930;42.678;23.312;2023-03-23T00:56:45;8.83;;;6.07;;
5807;SDS011;2930;42.678;23.312;2023-03-23T00:59:10;6.23;;;5.63;;
5807;SDS011;2930;42.678;23.312;2023-03-23T01:01:36;9.90;;;5.63;;
5807;SDS011;2930;42.678;23.312;2023-03-23T01:04:02;10.70;;;6.27;;
5807;SDS011;2930;42.678;23.312;2023-03-23T01:06:32;10.03;;;5.97;;
5807;SDS011;2930;42.678;23.312;2023-03-23T01:09:06;10.97;;;6.77;;
5807;SDS011;2930;42.678;23.312;2023-03-23T01:11:33;12.97;;;6.30;;
5807;SDS011;2930;42.678;23.312;2023-03-23T01:13:59;10.27;;;7.13;;
5807;SDS011;2930;42.678;23.312;2023-03-23T01:16:26;13.87;;;7.07;;
5807;SDS011;2930;42.678;23.312;2023-03-23T01:18:52;12.00;;;7.43;;
5807;SDS011;2930;42.678;23.312;2023-03-23T01:21:18;9.93;;;7.07;;
5807;SDS011;2930;42.678;23.312;2023-03-23T01:23:45;7.23;;;6.17;;
5807;SDS011;2930;42.678;23.312;2023-03-23T01:26:12;12.13;;;6.97;;
5807;SDS011;2930;42.678;23.312;2023-03-23T01:28:39;15.40;;;6.53;;
5807;SDS011;2930;42.678;23.312;2023-03-23T01:31:07;10.67;;;6.43;;
5807;SDS011;2930;42.678;23.312;2023-03-23T01:33:34;12.53;;;7.90;;
5807;SDS011;2930;42.678;23.312;2023-03-23T01:36:07;10.97;;;6.63;;
5807;SDS011;2930;42.678;23.312;2023-03-23T01:38:36;12.40;;;7.43;;
5807;SDS011;2930;42.678;23.312;2023-03-23T01:41:02;6.83;;;5.87;;
5807;SDS011;2930;42.678;23.312;2023-03-23T01:43:28;7.50;;;5.57;;
5807;SDS011;2930;42.678;23.312;2023-03-23T01:45:54;5.80;;;4.63;;
5807;SDS011;2930;42.678;23.312;2023-03-23T01:48:23;10.87;;;5.80;;
5807;SDS011;2930;42.678;23.312;2023-03-23T01:51:03;6.43;;;4.93;;
5807;SDS011;2930;42.678;23.312;2023-03-23T01:56:26;9.77;;;5.73;;
5807;SDS011;2930;42.678;23.312;2023-03-23T01:58:58;12.57;;;5.90;;
5807;SDS011;2930;42.678;23.312;2023-03-23T02:01:24;7.73;;;5.13;;
5807;SDS011;2930;42.678;23.312;2023-03-23T02:03:52;7.07;;;5.17;;
5807;SDS011;2930;42.678;23.312;2023-03-23T02:06:21;7.77;;;4.83;;
5807;SDS011;2930;42.678;23.312;2023-03-23T02:08:47;8.47;;;5.63;;
5807;SDS011;2930;42.678;23.312;2023-03-23T02:11:15;6.73;;;4.77;;
5807;SDS011;2930;42.678;23.312;2023-03-23T02:13:42;4.20;;;3.87;;
5807;SDS011;2930;42.678;23.312;2023-03-23T02:19:19;7.23;;;4.67;;
5807;SDS011;2930;42.678;23.312;2023-03-23T02:24:48;5.23;;;4.23;;
5807;SDS011;2930;42.678;23.312;2023-03-23T02:27:55;9.97;;;4.33;;
5807;SDS011;2930;42.678;23.312;2023-03-23T02:41:45;5.00;;;4.60;;
5807;SDS011;2930;42.678;23.312;2023-03-23T02:44:18;9.20;;;5.50;;
5807;SDS011;2930;42.678;23.312;2023-03-23T02:46:44;6.87;;;4.73;;
5807;SDS011;2930;42.678;23.312;2023-03-23T02:49:11;5.47;;;4.47;;
5807;SDS011;2930;42.678;23.312;2023-03-23T02:51:40;3.77;;;3.47;;
5807;SDS011;2930;42.678;23.312;2023-03-23T02:54:08;5.80;;;4.80;;
5807;SDS011;2930;42.678;23.312;2023-03-23T02:56:35;4.13;;;3.53;;
5807;SDS011;2930;42.678;23.312;2023-03-23T02:59:01;6.33;;;3.97;;
5807;SDS011;2930;42.678;23.312;2023-03-23T03:03:53;6.80;;;4.10;;
5807;SDS011;2930;42.678;23.312;2023-03-23T03:06:27;5.13;;;4.40;;
5807;SDS011;2930;42.678;23.312;2023-03-23T03:09:02;5.80;;;4.13;;
5807;SDS011;2930;42.678;23.312;2023-03-23T03:11:45;8.87;;;5.27;;
5807;SDS011;2930;42.678;23.312;2023-03-23T03:14:26;6.13;;;4.53;;
5807;SDS011;2930;42.678;23.312;2023-03-23T03:16:58;6.23;;;4.60;;
5807;SDS011;2930;42.678;23.312;2023-03-23T03:21:56;6.43;;;4.47;;
5807;SDS011;2930;42.678;23.312;2023-03-23T03:24:24;4.87;;;4.43;;
5807;SDS011;2930;42.678;23.312;2023-03-23T03:26:53;8.37;;;4.70;;
5807;SDS011;2930;42.678;23.312;2023-03-23T03:29:44;7.37;;;4.43;;
5807;SDS011;2930;42.678;23.312;2023-03-23T03:32:13;7.67;;;3.77;;
5807;SDS011;2930;42.678;23.312;2023-03-23T03:34:42;5.70;;;4.20;;
5807;SDS011;2930;42.678;23.312;2023-03-23T03:37:08;4.43;;;3.80;;
5807;SDS011;2930;42.678;23.312;2023-03-23T03:39:36;4.77;;;3.73;;
5807;SDS011;2930;42.678;23.312;2023-03-23T03:42:02;7.23;;;3.90;;
5807;SDS011;2930;42.678;23.312;2023-03-23T03:44:29;8.10;;;3.90;;
5807;SDS011;2930;42.678;23.312;2023-03-23T03:46:54;6.27;;;3.87;;
5807;SDS011;2930;42.678;23.312;2023-03-23T03:49:20;5.13;;;4.63;;
5807;SDS011;2930;42.678;23.312;2023-03-23T03:51:47;3.27;;;3.03;;
5807;SDS011;2930;42.678;23.312;2023-03-23T03:54:13;3.93;;;3.43;;
5807;SDS011;2930;42.678;23.312;2023-03-23T03:56:38;3.03;;;2.83;;
5807;SDS011;2930;42.678;23.312;2023-03-23T03:59:09;3.30;;;2.57;;
5807;SDS011;2930;42.678;23.312;2023-03-23T04:01:36;5.87;;;2.97;;
5807;SDS011;2930;42.678;23.312;2023-03-23T04:04:03;2.67;;;2.47;;
5807;SDS011;2930;42.678;23.312;2023-03-23T04:06:31;4.40;;;2.90;;
5807;SDS011;2930;42.678;23.312;2023-03-23T04:09:01;3.57;;;2.80;;
5807;SDS011;2930;42.678;23.312;2023-03-23T04:11:31;6.63;;;3.37;;
5807;SDS011;2930;42.678;23.312;2023-03-23T04:13:57;3.37;;;2.97;;
5807;SDS011;2930;42.678;23.312;2023-03-23T04:16:23;3.43;;;2.47;;
5807;SDS011;2930;42.678;23.312;2023-03-23T04:18:49;3.40;;;2.97;;
5807;SDS011;2930;42.678;23.312;2023-03-23T04:21:14;6.17;;;3.10;;
5807;SDS011;2930;42.678;23.312;2023-03-23T04:23:41;7.07;;;2.63;;
5807;SDS011;2930;42.678;23.312;2023-03-23T04:26:06;4.47;;;2.97;;
5807;SDS011;2930;42.678;23.312;2023-03-23T04:28:32;3.50;;;2.90;;
5807;SDS011;2930;42.678;23.312;2023-03-23T04:30:59;3.03;;;2.67;;
5807;SDS011;2930;42.678;23.312;2023-03-23T04:33:26;3.10;;;2.83;;
5807;SDS011;2930;42.678;23.312;2023-03-23T04:35:53;4.60;;;2.67;;
5807;SDS011;2930;42.678;23.312;2023-03-23T04:38:21;4.27;;;2.97;;
5807;SDS011;2930;42.678;23.312;2023-03-23T04:40:50;3.07;;;2.83;;
5807;SDS011;2930;42.678;23.312;2023-03-23T04:43:17;3.53;;;2.90;;
5807;SDS011;2930;42.678;23.312;2023-03-23T04:45:51;3.53;;;3.10;;
5807;SDS011;2930;42.678;23.312;2023-03-23T04:48:21;4.93;;;3.30;;
5807;SDS011;2930;42.678;23.312;2023-03-23T04:50:51;3.40;;;2.53;;
5807;SDS011;2930;42.678;23.312;2023-03-23T04:53:17;3.17;;;2.87;;
5807;SDS011;2930;42.678;23.312;2023-03-23T04:55:43;2.90;;;2.70;;
5807;SDS011;2930;42.678;23.312;2023-03-23T04:58:09;2.77;;;2.43;;
5807;SDS011;2930;42.678;23.312;2023-03-23T05:00:39;2.97;;;2.77;;
5807;SDS011;2930;42.678;23.312;2023-03-23T05:03:08;3.20;;;2.90;;
5807;SDS011;2930;42.678;23.312;2023-03-23T05:05:41;4.77;;;3.73;;
5807;SDS011;2930;42.678;23.312;2023-03-23T05:08:07;4.43;;;2.70;;
5807;SDS011;2930;42.678;23.312;2023-03-23T05:10:32;3.87;;;3.00;;
5807;SDS011;2930;42.678;23.312;2023-03-23T05:12:58;5.23;;;3.23;;
5807;SDS011;2930;42.678;23.312;2023-03-23T05:15:23;3.43;;;3.07;;
5807;SDS011;2930;42.678;23.312;2023-03-23T05:17:51;4.67;;;3.47;;
5807;SDS011;2930;42.678;23.312;2023-03-23T05:20:16;6.07;;;4.10;;
5807;SDS011;2930;42.678;23.312;2023-03-23T05:22:45;6.37;;;3.33;;
5807;SDS011;2930;42.678;23.312;2023-03-23T05:25:14;3.23;;;2.93;;
5807;SDS011;2930;42.678;23.312;2023-03-23T05:27:44;4.33;;;2.73;;
5807;SDS011;2930;42.678;23.312;2023-03-23T05:30:14;4.37;;;3.37;;
5807;SDS011;2930;42.678;23.312;2023-03-23T05:32:42;4.93;;;3.60;;
5807;SDS011;2930;42.678;23.312;2023-03-23T05:35:10;6.10;;;3.77;;
5807;SDS011;2930;42.678;23.312;2023-03-23T05:37:36;5.40;;;4.77;;
5807;SDS011;2930;42.678;23.312;2023-03-23T05:40:03;6.13;;;3.73;;
5807;SDS011;2930;42.678;23.312;2023-03-23T05:42:34;3.50;;;3.20;;
5807;SDS011;2930;42.678;23.312;2023-03-23T05:45:04;5.73;;;4.17;;
5807;SDS011;2930;42.678;23.312;2023-03-23T05:47:31;6.00;;;4.27;;
5807;SDS011;2930;42.678;23.312;2023-03-23T05:49:57;8.33;;;5.47;;
5807;SDS011;2930;42.678;23.312;2023-03-23T05:52:23;11.73;;;5.87;;
5807;SDS011;2930;42.678;23.312;2023-03-23T05:54:49;9.17;;;5.73;;
5807;SDS011;2930;42.678;23.312;2023-03-23T05:57:16;10.30;;;5.47;;
5807;SDS011;2930;42.678;23.312;2023-03-23T05:59:43;8.77;;;5.30;;
5807;SDS011;2930;42.678;23.312;2023-03-23T06:02:09;6.03;;;5.43;;
5807;SDS011;2930;42.678;23.312;2023-03-23T06:04:35;5.90;;;4.37;;
5807;SDS011;2930;42.678;23.312;2023-03-23T06:07:03;7.93;;;4.93;;
5807;SDS011;2930;42.678;23.312;2023-03-23T06:09:29;7.87;;;5.30;;
5807;SDS011;2930;42.678;23.312;2023-03-23T06:11:55;8.10;;;6.00;;
5807;SDS011;2930;42.678;23.312;2023-03-23T06:14:22;10.73;;;6.30;;
5807;SDS011;2930;42.678;23.312;2023-03-23T06:16:48;7.90;;;6.47;;
5807;SDS011;2930;42.678;23.312;2023-03-23T06:19:14;10.53;;;6.80;;
5807;SDS011;2930;42.678;23.312;2023-03-23T06:21:40;11.47;;;7.50;;
5807;SDS011;2930;42.678;23.312;2023-03-23T06:24:06;11.77;;;7.30;;
5807;SDS011;2930;42.678;23.312;2023-03-23T06:26:36;10.10;;;6.37;;
5807;SDS011;2930;42.678;23.312;2023-03-23T06:29:04;9.17;;;6.40;;
5807;SDS011;2930;42.678;23.312;2023-03-23T06:31:36;10.37;;;6.77;;
5807;SDS011;2930;42.678;23.312;2023-03-23T06:34:08;7.83;;;6.43;;
5807;SDS011;2930;42.678;23.312;2023-03-23T06:36:35;10.83;;;7.10;;
5807;SDS011;2930;42.678;23.312;2023-03-23T06:39:01;10.20;;;6.97;;
5807;SDS011;2930;42.678;23.312;2023-03-23T06:41:29;10.40;;;6.90;;
5807;SDS011;2930;42.678;23.312;2023-03-23T06:43:58;16.83;;;7.17;;
5807;SDS011;2930;42.678;23.312;2023-03-23T06:46:25;8.70;;;6.83;;
5807;SDS011;2930;42.678;23.312;2023-03-23T06:48:51;13.90;;;6.80;;
5807;SDS011;2930;42.678;23.312;2023-03-23T06:51:18;13.70;;;7.30;;
5807;SDS011;2930;42.678;23.312;2023-03-23T06:53:43;10.23;;;6.90;;
5807;SDS011;2930;42.678;23.312;2023-03-23T06:56:09;14.33;;;8.17;;
5807;SDS011;2930;42.678;23.312;2023-03-23T06:58:37;14.47;;;7.57;;
5807;SDS011;2930;42.678;23.312;2023-03-23T07:01:03;10.13;;;7.17;;
5807;SDS011;2930;42.678;23.312;2023-03-23T07:03:29;8.60;;;6.37;;
5807;SDS011;2930;42.678;23.312;2023-03-23T07:05:56;8.53;;;6.83;;
5807;SDS011;2930;42.678;23.312;2023-03-23T07:08:21;11.77;;;7.63;;
5807;SDS011;2930;42.678;23.312;2023-03-23T07:10:47;7.37;;;6.17;;
5807;SDS011;2930;42.678;23.312;2023-03-23T07:13:17;11.93;;;7.40;;
5807;SDS011;2930;42.678;23.312;2023-03-23T07:15:43;17.37;;;7.90;;
5807;SDS011;2930;42.678;23.312;2023-03-23T07:18:09;11.90;;;7.57;;
5807;SDS011;2930;42.678;23.312;2023-03-23T07:20:35;9.97;;;6.90;;
5807;SDS011;2930;42.678;23.312;2023-03-23T07:23:01;8.90;;;7.17;;
5807;SDS011;2930;42.678;23.312;2023-03-23T07:25:30;8.80;;;6.00;;
5807;SDS011;2930;42.678;23.312;2023-03-23T07:27:57;8.83;;;6.67;;
5807;SDS011;2930;42.678;23.312;2023-03-23T07:30:27;10.73;;;7.13;;
5807;SDS011;2930;42.678;23.312;2023-03-23T07:32:54;10.33;;;7.60;;
5807;SDS011;2930;42.678;23.312;2023-03-23T07:35:21;12.77;;;7.40;;
5807;SDS011;2930;42.678;23.312;2023-03-23T07:37:47;12.27;;;7.40;;
5807;SDS011;2930;42.678;23.312;2023-03-23T07:40:16;8.37;;;6.30;;
5807;SDS011;2930;42.678;23.312;2023-03-23T07:42:43;7.43;;;6.40;;
5807;SDS011;2930;42.678;23.312;2023-03-23T07:45:11;10.53;;;6.67;;
5807;SDS011;2930;42.678;23.312;2023-03-23T07:47:38;9.03;;;6.97;;
5807;SDS011;2930;42.678;23.312;2023-03-23T07:50:07;10.43;;;5.57;;
5807;SDS011;2930;42.678;23.312;2023-03-23T07:52:34;9.83;;;6.20;;
5807;SDS011;2930;42.678;23.312;2023-03-23T07:55:00;7.57;;;6.57;;
5807;SDS011;2930;42.678;23.312;2023-03-23T07:57:28;11.03;;;6.30;;
5807;SDS011;2930;42.678;23.312;2023-03-23T07:59:54;7.43;;;6.00;;
5807;SDS011;2930;42.678;23.312;2023-03-23T08:02:21;7.80;;;6.05;;
5807;SDS011;2930;42.678;23.312;2023-03-23T08:04:48;7.35;;;5.43;;
5807;SDS011;2930;42.678;23.312;2023-03-23T08:07:14;9.77;;;6.07;;
5807;SDS011;2930;42.678;23.312;2023-03-23T08:09:41;6.45;;;5.63;;
5807;SDS011;2930;42.678;23.312;2023-03-23T08:12:07;10.35;;;6.75;;
5807;SDS011;2930;42.678;23.312;2023-03-23T08:14:33;7.60;;;6.13;;
5807;SDS011;2930;42.678;23.312;2023-03-23T08:16:59;8.60;;;6.25;;
5807;SDS011;2930;42.678;23.312;2023-03-23T08:19:25;8.13;;;6.05;;
5807;SDS011;2930;42.678;23.312;2023-03-23T08:21:51;7.22;;;6.07;;
5807;SDS011;2930;42.678;23.312;2023-03-23T08:24:17;7.70;;;6.05;;
5807;SDS011;2930;42.678;23.312;2023-03-23T08:26:43;8.70;;;5.70;;
5807;SDS011;2930;42.678;23.312;2023-03-23T08:29:09;8.15;;;4.88;;
5807;SDS011;2930;42.678;23.312;2023-03-23T08:31:35;4.78;;;4.25;;
5807;SDS011;2930;42.678;23.312;2023-03-23T08:34:02;6.82;;;5.00;;
5807;SDS011;2930;42.678;23.312;2023-03-23T08:36:30;5.63;;;4.63;;
5807;SDS011;2930;42.678;23.312;2023-03-23T08:38:57;12.73;;;6.80;;
5807;SDS011;2930;42.678;23.312;2023-03-23T08:41:23;8.45;;;6.80;;
5807;SDS011;2930;42.678;23.312;2023-03-23T08:43:49;8.65;;;5.82;;
5807;SDS011;2930;42.678;23.312;2023-03-23T08:46:15;7.32;;;5.45;;
5807;SDS011;2930;42.678;23.312;2023-03-23T08:48:41;7.45;;;4.70;;
5807;SDS011;2930;42.678;23.312;2023-03-23T08:51:08;5.28;;;4.07;;
5807;SDS011;2930;42.678;23.312;2023-03-23T08:53:35;3.97;;;3.70;;
5807;SDS011;2930;42.678;23.312;2023-03-23T08:56:05;4.82;;;4.43;;
5807;SDS011;2930;42.678;23.312;2023-03-23T08:58:36;4.93;;;4.53;;
5807;SDS011;2930;42.678;23.312;2023-03-23T09:01:03;4.97;;;4.57;;
5807;SDS011;2930;42.678;23.312;2023-03-23T09:03:31;5.07;;;4.60;;
5807;SDS011;2930;42.678;23.312;2023-03-23T09:05:58;5.90;;;4.03;;
5807;SDS011;2930;42.678;23.312;2023-03-23T09:08:25;4.10;;;3.80;;
5807;SDS011;2930;42.678;23.312;2023-03-23T09:10:54;3.78;;;3.47;;
5807;SDS011;2930;42.678;23.312;2023-03-23T09:13:20;3.63;;;3.22;;
5807;SDS011;2930;42.678;23.312;2023-03-23T09:15:46;3.53;;;3.22;;
5807;SDS011;2930;42.678;23.312;2023-03-23T09:18:12;3.30;;;2.65;;
5807;SDS011;2930;42.678;23.312;2023-03-23T09:20:38;2.80;;;2.70;;
5807;SDS011;2930;42.678;23.312;2023-03-23T09:23:04;2.63;;;2.53;;
5807;SDS011;2930;42.678;23.312;2023-03-23T09:25:30;2.95;;;2.85;;
5807;SDS011;2930;42.678;23.312;2023-03-23T09:27:57;2.75;;;2.55;;
5807;SDS011;2930;42.678;23.312;2023-03-23T09:30:24;2.88;;;2.70;;
5807;SDS011;2930;42.678;23.312;2023-03-23T09:32:55;3.22;;;3.13;;
5807;SDS011;2930;42.678;23.312;2023-03-23T09:35:22;3.20;;;2.90;;
5807;SDS011;2930;42.678;23.312;2023-03-23T09:37:49;4.20;;;3.88;;
5807;SDS011;2930;42.678;23.312;2023-03-23T09:40:23;4.45;;;4.05;;
5807;SDS011;2930;42.678;23.312;2023-03-23T09:50:52;3.45;;;3.15;;
5807;SDS011;2930;42.678;23.312;2023-03-23T09:53:30;6.10;;;3.20;;
5807;SDS011;2930;42.678;23.312;2023-03-23T09:56:03;4.10;;;3.58;;
5807;SDS011;2930;42.678;23.312;2023-03-23T09:58:57;3.50;;;3.30;;
5807;SDS011;2930;42.678;23.312;2023-03-23T10:01:28;3.35;;;3.05;;
5807;SDS011;2930;42.678;23.312;2023-03-23T10:04:21;4.38;;;3.67;;
5807;SDS011;2930;42.678;23.312;2023-03-23T10:07:09;3.60;;;3.30;;
5807;SDS011;2930;42.678;23.312;2023-03-23T10:09:42;2.45;;;2.35;;
5807;SDS011;2930;42.678;23.312;2023-03-23T10:12:14;2.88;;;2.75;;
5807;SDS011;2930;42.678;23.312;2023-03-23T10:14:50;3.10;;;2.90;;
5807;SDS011;2930;42.678;23.312;2023-03-23T10:25:41;3.60;;;3.30;;
5807;SDS011;2930;42.678;23.312;2023-03-23T10:28:12;4.03;;;2.95;;
5807;SDS011;2930;42.678;23.312;2023-03-23T10:30:44;3.10;;;2.90;;
5807;SDS011;2930;42.678;23.312;2023-03-23T10:33:30;3.35;;;3.10;;
5807;SDS011;2930;42.678;23.312;2023-03-23T10:38:58;2.38;;;2.38;;
5807;SDS011;2930;42.678;23.312;2023-03-23T10:41:28;2.40;;;2.38;;
5807;SDS011;2930;42.678;23.312;2023-03-23T10:43:55;2.83;;;2.72;;
5807;SDS011;2930;42.678;23.312;2023-03-23T10:46:40;2.92;;;2.83;;
5807;SDS011;2930;42.678;23.312;2023-03-23T10:49:23;3.13;;;2.55;;
5807;SDS011;2930;42.678;23.312;2023-03-23T10:55:05;3.35;;;3.15;;
5807;SDS011;2930;42.678;23.312;2023-03-23T10:57:32;3.22;;;3.03;;
5807;SDS011;2930;42.678;23.312;2023-03-23T11:02:36;3.10;;;3.00;;
5807;SDS011;2930;42.678;23.312;2023-03-23T11:05:20;2.80;;;2.70;;
5807;SDS011;2930;42.678;23.312;2023-03-23T11:07:54;2.85;;;2.75;;
5807;SDS011;2930;42.678;23.312;2023-03-23T11:10:23;2.85;;;2.75;;
5807;SDS011;2930;42.678;23.312;2023-03-23T11:12:59;3.20;;;2.97;;
5807;SDS011;2930;42.678;23.312;2023-03-23T11:17:57;3.17;;;2.97;;
5807;SDS011;2930;42.678;23.312;2023-03-23T11:20:25;2.75;;;2.65;;
5807;SDS011;2930;42.678;23.312;2023-03-23T11:22:53;2.13;;;1.92;;
5807;SDS011;2930;42.678;23.312;2023-03-23T11:25:20;2.50;;;2.40;;
5807;SDS011;2930;42.678;23.312;2023-03-23T11:27:46;2.65;;;2.50;;
5807;SDS011;2930;42.678;23.312;2023-03-23T11:30:30;2.40;;;2.33;;
5807;SDS011;2930;42.678;23.312;2023-03-23T11:32:58;2.60;;;2.50;;
5807;SDS011;2930;42.678;23.312;2023-03-23T11:35:27;2.72;;;2.33;;
5807;SDS011;2930;42.678;23.312;2023-03-23T11:37:54;2.13;;;2.03;;
5807;SDS011;2930;42.678;23.312;2023-03-23T11:40:23;2.70;;;2.60;;
5807;SDS011;2930;42.678;23.312;2023-03-23T11:43:12;3.00;;;2.80;;
5807;SDS011;2930;42.678;23.312;2023-03-23T11:45:45;3.08;;;2.92;;
5807;SDS011;2930;42.678;23.312;2023-03-23T11:51:12;2.85;;;2.50;;
5807;SDS011;2930;42.678;23.312;2023-03-23T11:56:19;2.22;;;2.13;;
5807;SDS011;2930;42.678;23.312;2023-03-23T11:58:52;2.63;;;2.53;;
5807;SDS011;2930;42.678;23.312;2023-03-23T12:01:32;3.00;;;2.78;;
5807;SDS011;2930;42.678;23.312;2023-03-23T12:41:15;2.90;;;2.72;;
5807;SDS011;2930;42.678;23.312;2023-03-23T12:43:52;4.45;;;2.63;;
5807;SDS011;2930;42.678;23.312;2023-03-23T12:46:25;2.50;;;2.40;;
5807;SDS011;2930;42.678;23.312;2023-03-23T12:49:07;2.20;;;2.20;;
5807;SDS011;2930;42.678;23.312;2023-03-23T13:05:06;2.40;;;2.25;;
5807;SDS011;2930;42.678;23.312;2023-03-23T13:10:44;1.70;;;1.70;;
5807;SDS011;2930;42.678;23.312;2023-03-23T13:21:23;2.78;;;2.63;;
5807;SDS011;2930;42.678;23.312;2023-03-23T13:23:55;2.30;;;2.13;;
5807;SDS011;2930;42.678;23.312;2023-03-23T13:26:24;2.30;;;2.25;;
5807;SDS011;2930;42.678;23.312;2023-03-23T13:28:55;2.13;;;2.13;;
5807;SDS011;2930;42.678;23.312;2023-03-23T13:31:30;3.22;;;2.40;;
5807;SDS011;2930;42.678;23.312;2023-03-23T13:39:31;2.45;;;2.35;;
5807;SDS011;2930;42.678;23.312;2023-03-23T13:42:04;2.45;;;2.38;;
5807;SDS011;2930;42.678;23.312;2023-03-23T13:49:52;2.53;;;2.33;;
5807;SDS011;2930;42.678;23.312;2023-03-23T14:05:44;2.20;;;2.10;;
5807;SDS011;2930;42.678;23.312;2023-03-23T14:08:24;2.20;;;1.95;;
5807;SDS011;2930;42.678;23.312;2023-03-23T14:13:35;2.05;;;2.03;;
5807;SDS011;2930;42.678;23.312;2023-03-23T14:16:21;1.95;;;1.95;;
5807;SDS011;2930;42.678;23.312;2023-03-23T14:18:59;2.28;;;2.28;;
5807;SDS011;2930;42.678;23.312;2023-03-23T14:21:31;2.65;;;2.40;;
5807;SDS011;2930;42.678;23.312;2023-03-23T14:24:12;1.98;;;1.98;;
5807;SDS011;2930;42.678;23.312;2023-03-23T14:26:41;2.30;;;2.25;;
5807;SDS011;2930;42.678;23.312;2023-03-23T14:29:08;2.42;;;2.30;;
5807;SDS011;2930;42.678;23.312;2023-03-23T14:31:35;2.30;;;2.25;;
5807;SDS011;2930;42.678;23.312;2023-03-23T14:34:12;2.63;;;2.53;;
5807;SDS011;2930;42.678;23.312;2023-03-23T14:36:40;2.50;;;2.40;;
5807;SDS011;2930;42.678;23.312;2023-03-23T14:39:12;2.47;;;2.38;;
5807;SDS011;2930;42.678;23.312;2023-03-23T14:41:51;2.50;;;2.40;;
5807;SDS011;2930;42.678;23.312;2023-03-23T14:44:28;2.40;;;2.30;;
5807;SDS011;2930;42.678;23.312;2023-03-23T14:46:56;2.13;;;1.98;;
5807;SDS011;2930;42.678;23.312;2023-03-23T14:49:31;2.28;;;2.17;;
5807;SDS011;2930;42.678;23.312;2023-03-23T14:52:16;4.28;;;1.95;;
5807;SDS011;2930;42.678;23.312;2023-03-23T14:54:43;2.38;;;2.28;;
5807;SDS011;2930;42.678;23.312;2023-03-23T14:57:14;2.45;;;2.20;;
5807;SDS011;2930;42.678;23.312;2023-03-23T14:59:41;2.05;;;2.03;;
5807;SDS011;2930;42.678;23.312;2023-03-23T15:02:23;1.95;;;1.88;;
5807;SDS011;2930;42.678;23.312;2023-03-23T15:04:56;2.53;;;2.20;;
5807;SDS011;2930;42.678;23.312;2023-03-23T15:07:31;2.17;;;2.17;;
5807;SDS011;2930;42.678;23.312;2023-03-23T15:09:59;2.47;;;2.38;;
5807;SDS011;2930;42.678;23.312;2023-03-23T15:12:27;2.30;;;2.20;;
5807;SDS011;2930;42.678;23.312;2023-03-23T15:14:58;2.30;;;2.20;;
5807;SDS011;2930;42.678;23.312;2023-03-23T15:17:30;2.78;;;2.63;;
5807;SDS011;2930;42.678;23.312;2023-03-23T15:20:06;2.42;;;2.22;;
5807;SDS011;2930;42.678;23.312;2023-03-23T15:23:06;2.88;;;2.67;;
5807;SDS011;2930;42.678;23.312;2023-03-23T15:25:33;2.08;;;2.03;;
5807;SDS011;2930;42.678;23.312;2023-03-23T15:30:33;2.75;;;2.65;;
5807;SDS011;2930;42.678;23.312;2023-03-23T15:33:11;2.47;;;2.38;;
5807;SDS011;2930;42.678;23.312;2023-03-23T15:35:39;2.53;;;2.33;;
5807;SDS011;2930;42.678;23.312;2023-03-23T15:40:58;2.60;;;2.50;;
5807;SDS011;2930;42.678;23.312;2023-03-23T15:43:32;2.53;;;2.42;;
5807;SDS011;2930;42.678;23.312;2023-03-23T15:46:01;2.42;;;2.33;;
5807;SDS011;2930;42.678;23.312;2023-03-23T15:48:44;2.97;;;2.20;;
5807;SDS011;2930;42.678;23.312;2023-03-23T15:51:10;2.42;;;2.33;;
5807;SDS011;2930;42.678;23.312;2023-03-23T15:53:38;2.65;;;2.55;;
5807;SDS011;2930;42.678;23.312;2023-03-23T15:56:05;2.45;;;2.30;;
5807;SDS011;2930;42.678;23.312;2023-03-23T15:58:32;2.08;;;1.98;;
5807;SDS011;2930;42.678;23.312;2023-03-23T16:00:59;2.63;;;2.53;;
5807;SDS011;2930;42.678;23.312;2023-03-23T16:03:37;2.53;;;2.35;;
5807;SDS011;2930;42.678;23.312;2023-03-23T16:06:05;2.40;;;2.30;;
5807;SDS011;2930;42.678;23.312;2023-03-23T16:08:34;2.50;;;2.35;;
5807;SDS011;2930;42.678;23.312;2023-03-23T16:11:04;2.10;;;2.00;;
5807;SDS011;2930;42.678;23.312;2023-03-23T16:13:31;2.45;;;2.35;;
5807;SDS011;2930;42.678;23.312;2023-03-23T16:15:57;2.97;;;2.35;;
5807;SDS011;2930;42.678;23.312;2023-03-23T16:18:23;2.88;;;2.13;;
5807;SDS011;2930;42.678;23.312;2023-03-23T16:20:48;2.42;;;2.13;;
5807;SDS011;2930;42.678;23.312;2023-03-23T16:23:15;2.08;;;2.03;;
5807;SDS011;2930;42.678;23.312;2023-03-23T16:25:41;2.10;;;1.90;;
5807;SDS011;2930;42.678;23.312;2023-03-23T16:28:10;2.50;;;2.38;;
5807;SDS011;2930;42.678;23.312;2023-03-23T16:30:37;2.70;;;2.50;;
5807;SDS011;2930;42.678;23.312;2023-03-23T16:33:04;3.17;;;2.40;;
5807;SDS011;2930;42.678;23.312;2023-03-23T16:35:29;3.50;;;3.30;;
5807;SDS011;2930;42.678;23.312;2023-03-23T16:37:56;2.40;;;1.83;;
5807;SDS011;2930;42.678;23.312;2023-03-23T16:40:22;2.40;;;2.30;;
5807;SDS011;2930;42.678;23.312;2023-03-23T16:42:49;2.55;;;2.35;;
5807;SDS011;2930;42.678;23.312;2023-03-23T16:45:15;2.40;;;2.20;;
5807;SDS011;2930;42.678;23.312;2023-03-23T16:47:41;2.35;;;2.25;;
5807;SDS011;2930;42.678;23.312;2023-03-23T16:50:09;2.30;;;2.20;;
5807;SDS011;2930;42.678;23.312;2023-03-23T16:52:37;2.50;;;2.10;;
5807;SDS011;2930;42.678;23.312;2023-03-23T16:55:04;2.20;;;2.10;;
5807;SDS011;2930;42.678;23.312;2023-03-23T16:57:32;3.38;;;2.55;;
5807;SDS011;2930;42.678;23.312;2023-03-23T16:59:59;2.40;;;2.30;;
5807;SDS011;2930;42.678;23.312;2023-03-23T17:02:25;1.92;;;1.90;;
5807;SDS011;2930;42.678;23.312;2023-03-23T17:04:51;1.85;;;1.85;;
5807;SDS011;2930;42.678;23.312;2023-03-23T17:07:17;2.20;;;2.10;;
5807;SDS011;2930;42.678;23.312;2023-03-23T17:09:43;2.55;;;2.38;;
5807;SDS011;2930;42.678;23.312;2023-03-23T17:12:08;1.95;;;1.90;;
5807;SDS011;2930;42.678;23.312;2023-03-23T17:14:34;3.60;;;2.25;;
5807;SDS011;2930;42.678;23.312;2023-03-23T17:17:00;2.63;;;2.40;;
5807;SDS011;2930;42.678;23.312;2023-03-23T17:19:26;2.90;;;2.65;;
5807;SDS011;2930;42.678;23.312;2023-03-23T17:21:52;4.22;;;2.40;;
5807;SDS011;2930;42.678;23.312;2023-03-23T17:24:18;4.82;;;2.55;;
5807;SDS011;2930;42.678;23.312;2023-03-23T17:26:43;4.85;;;3.08;;
5807;SDS011;2930;42.678;23.312;2023-03-23T17:29:09;3.33;;;2.90;;
5807;SDS011;2930;42.678;23.312;2023-03-23T17:31:35;3.60;;;3.30;;
5807;SDS011;2930;42.678;23.312;2023-03-23T17:34:01;5.47;;;3.72;;
5807;SDS011;2930;42.678;23.312;2023-03-23T17:36:27;3.53;;;3.03;;
5807;SDS011;2930;42.678;23.312;2023-03-23T17:38:52;3.10;;;2.85;;
5807;SDS011;2930;42.678;23.312;2023-03-23T17:41:18;5.18;;;3.15;;
5807;SDS011;2930;42.678;23.312;2023-03-23T17:43:45;3.63;;;2.83;;
5807;SDS011;2930;42.678;23.312;2023-03-23T17:46:11;3.17;;;2.97;;